Time;durP1;ratioP1;P1;durP2;ratioP2;P2;SDS_P1;SDS_P2;PMS_P1;PMS_P2;Temp;Humidity;BMP_temperature;BMP_pressure;BME280_temperature;BME280_humidity;BME280_pressure;Samples;Min_cycle;Max_cycle;Signal;HPM_P1;HPM_P2
2021/09/06 00:01:35;;;;;;;10.63;5.80;;;20.00;62.80;;;;;;5053863;28;20021;-70
2021/09/06 00:04:00;;;;;;;9.75;6.18;;;20.00;62.90;;;;;;5053793;28;20028;-70
2021/09/06 00:06:26;;;;;;;9.85;6.32;;;20.00;62.90;;;;;;5053740;28;20043;-70
2021/09/06 00:08:51;;;;;;;9.30;5.43;;;20.00;62.90;;;;;;5053685;28;20047;-70
2021/09/06 00:11:17;;;;;;;8.65;5.65;;;20.00;62.90;;;;;;5052318;28;20017;-70
2021/09/06 00:13:42;;;;;;;8.10;4.95;;;20.00;62.90;;;;;;5053622;28;20138;-71
2021/09/06 00:16:08;;;;;;;9.23;5.85;;;20.00;63.00;;;;;;5053396;28;20033;-70
2021/09/06 00:18:34;;;;;;;9.98;5.82;;;20.00;63.00;;;;;;5052269;28;20136;-70
2021/09/06 00:21:02;;;;;;;8.40;5.55;;;20.00;63.00;;;;;;5053699;28;20028;-70
2021/09/06 00:23:28;;;;;;;10.70;5.97;;;20.00;63.00;;;;;;5053435;28;20431;-70
2021/09/06 00:25:54;;;;;;;9.75;5.78;;;20.00;63.00;;;;;;5051949;28;20400;-70
2021/09/06 00:28:20;;;;;;;8.48;5.10;;;19.90;63.00;;;;;;5053317;28;20021;-70
2021/09/06 00:30:46;;;;;;;9.60;5.80;;;20.00;63.10;;;;;;5053307;28;20021;-70
2021/09/06 00:33:12;;;;;;;9.60;5.75;;;19.90;63.10;;;;;;5053225;28;20017;-70
2021/09/06 00:35:37;;;;;;;8.23;4.93;;;19.90;63.10;;;;;;5053272;28;20112;-70
2021/09/06 00:38:04;;;;;;;10.05;5.90;;;19.90;63.10;;;;;;5052999;28;20045;-71
2021/09/06 00:40:29;;;;;;;8.60;5.50;;;19.90;63.10;;;;;;5053043;28;20021;-70
2021/09/06 00:42:55;;;;;;;8.52;5.40;;;19.90;63.10;;;;;;5053091;28;20021;-70
2021/09/06 00:45:20;;;;;;;10.02;6.00;;;19.90;63.10;;;;;;5052994;28;20107;-70
2021/09/06 00:47:46;;;;;;;9.35;6.13;;;19.90;63.10;;;;;;5053083;28;20464;-70
2021/09/06 00:50:13;;;;;;;9.00;5.55;;;19.90;63.10;;;;;;5053007;28;20036;-70
2021/09/06 00:52:42;;;;;;;9.43;5.65;;;19.90;63.10;;;;;;5052868;28;20044;-70
2021/09/06 00:55:10;;;;;;;9.48;5.70;;;19.90;63.20;;;;;;5052856;28;20032;-70
2021/09/06 00:57:35;;;;;;;10.05;6.07;;;19.80;63.20;;;;;;5052772;28;20029;-71
2021/09/06 01:00:12;;;;;;;9.40;5.28;;;19.80;63.20;;;;;;5053369;28;20033;-70
2021/09/06 01:02:38;;;;;;;10.07;5.90;;;19.90;63.20;;;;;;5052709;28;20268;-70
2021/09/06 01:05:06;;;;;;;9.10;5.38;;;19.80;63.20;;;;;;5052725;28;20033;-70
2021/09/06 01:07:31;;;;;;;8.82;5.65;;;19.80;63.30;;;;;;5052544;28;20028;-70
2021/09/06 01:10:04;;;;;;;8.77;5.32;;;19.80;63.30;;;;;;5052954;28;20025;-70
2021/09/06 01:12:29;;;;;;;8.30;5.30;;;19.80;63.40;;;;;;5051329;28;20499;-70
2021/09/06 01:14:55;;;;;;;8.85;5.45;;;19.80;63.40;;;;;;5052696;28;20029;-70
2021/09/06 01:17:21;;;;;;;9.02;5.75;;;19.80;63.40;;;;;;5051344;28;20029;-70
2021/09/06 01:19:46;;;;;;;9.43;5.55;;;19.80;63.40;;;;;;5052619;28;20029;-70
2021/09/06 01:22:12;;;;;;;7.88;4.88;;;19.70;63.40;;;;;;5052498;28;20036;-70
2021/09/06 01:24:38;;;;;;;9.18;5.40;;;19.70;63.40;;;;;;5051345;28;20064;-71
2021/09/06 01:27:03;;;;;;;9.05;5.53;;;19.70;63.50;;;;;;5053505;28;20057;-70
2021/09/06 01:29:29;;;;;;;8.30;5.40;;;19.70;63.50;;;;;;5055428;28;20060;-70
2021/09/06 01:31:54;;;;;;;8.35;5.35;;;19.70;63.50;;;;;;5056667;28;20445;-70
2021/09/06 01:34:20;;;;;;;10.15;5.95;;;19.70;63.50;;;;;;5056664;28;20025;-71
2021/09/06 01:36:45;;;;;;;9.82;5.65;;;19.70;63.50;;;;;;5057073;28;20099;-71
2021/09/06 01:39:11;;;;;;;8.55;5.22;;;19.70;63.60;;;;;;5056359;28;20049;-70
2021/09/06 01:41:37;;;;;;;8.63;5.25;;;19.70;63.60;;;;;;5056497;28;20021;-70
2021/09/06 01:44:03;;;;;;;10.27;5.68;;;19.70;63.60;;;;;;5056446;28;20392;-71
2021/09/06 01:46:31;;;;;;;8.23;5.00;;;19.70;63.60;;;;;;5056280;28;20048;-70
2021/09/06 01:48:57;;;;;;;8.38;5.43;;;19.70;63.60;;;;;;5056342;28;20021;-70
2021/09/06 01:51:24;;;;;;;8.50;5.85;;;19.70;63.60;;;;;;5056332;28;20021;-70
2021/09/06 01:53:50;;;;;;;10.23;5.88;;;19.60;63.60;;;;;;5056250;28;20074;-70
2021/09/06 01:56:16;;;;;;;8.73;5.55;;;19.60;63.60;;;;;;5056218;28;20028;-70
2021/09/06 01:58:42;;;;;;;9.88;5.15;;;19.60;63.60;;;;;;5056179;28;20021;-70
2021/09/06 02:01:07;;;;;;;10.23;5.95;;;19.60;63.70;;;;;;5054845;28;20033;-70
2021/09/06 02:03:33;;;;;;;9.88;5.25;;;19.60;63.60;;;;;;5056054;28;20029;-69
2021/09/06 02:05:58;;;;;;;8.60;5.57;;;19.60;63.60;;;;;;5055950;28;20116;-70
2021/09/06 02:08:24;;;;;;;9.18;5.82;;;19.60;63.70;;;;;;5056051;28;20040;-70
2021/09/06 02:10:50;;;;;;;9.65;5.60;;;19.60;63.70;;;;;;5054755;28;20483;-70
2021/09/06 02:13:15;;;;;;;8.45;5.32;;;19.60;63.70;;;;;;5055896;28;20427;-70
2021/09/06 02:15:41;;;;;;;9.05;5.80;;;19.50;63.70;;;;;;5055838;28;20024;-70
2021/09/06 02:18:06;;;;;;;9.75;5.47;;;19.60;63.80;;;;;;5054689;28;20102;-71
2021/09/06 02:20:32;;;;;;;8.75;5.68;;;19.50;63.70;;;;;;5055694;28;20028;-70
2021/09/06 02:22:57;;;;;;;9.50;5.80;;;19.50;63.70;;;;;;5056021;28;20056;-71
2021/09/06 02:25:23;;;;;;;8.23;5.10;;;19.60;63.70;;;;;;5055653;28;20036;-70
2021/09/06 02:27:48;;;;;;;8.52;5.03;;;19.50;63.70;;;;;;5055801;28;20108;-71
2021/09/06 02:30:14;;;;;;;8.68;5.60;;;19.50;63.80;;;;;;5055729;28;20087;-71
2021/09/06 02:32:39;;;;;;;9.20;5.65;;;19.50;63.80;;;;;;5055586;28;20104;-71
2021/09/06 02:35:06;;;;;;;8.05;5.15;;;19.50;63.90;;;;;;5055497;28;20025;-71
2021/09/06 02:37:31;;;;;;;9.60;5.55;;;19.50;63.90;;;;;;5055360;28;20102;-71
2021/09/06 02:39:57;;;;;;;9.27;5.50;;;19.50;63.90;;;;;;5055411;28;20021;-71
2021/09/06 02:42:22;;;;;;;9.20;5.43;;;19.50;63.90;;;;;;5055406;28;20078;-71
2021/09/06 02:44:48;;;;;;;8.60;5.72;;;19.50;63.90;;;;;;5055435;28;20104;-71
2021/09/06 02:47:13;;;;;;;9.13;5.50;;;19.50;63.90;;;;;;5053936;28;20082;-71
2021/09/06 02:49:39;;;;;;;9.07;5.70;;;19.50;63.90;;;;;;5055232;28;20494;-71
2021/09/06 02:52:04;;;;;;;9.48;5.65;;;19.50;63.90;;;;;;5055227;28;20033;-72
2021/09/06 02:54:30;;;;;;;8.98;5.75;;;19.50;63.90;;;;;;5055195;28;20025;-70
2021/09/06 02:56:55;;;;;;;8.02;4.93;;;19.50;64.00;;;;;;5053925;28;20059;-70
2021/09/06 02:59:21;;;;;;;8.77;5.43;;;19.40;64.00;;;;;;5055189;28;20064;-70
2021/09/06 03:01:46;;;;;;;9.02;5.43;;;19.40;64.00;;;;;;5055144;28;20021;-70
2021/09/06 03:04:12;;;;;;;8.35;5.20;;;19.40;64.00;;;;;;5054953;28;20039;-70
2021/09/06 03:06:37;;;;;;;9.00;5.55;;;19.40;64.00;;;;;;5054920;28;20044;-70
2021/09/06 03:09:03;;;;;;;8.38;5.50;;;19.40;64.00;;;;;;5053704;28;20013;-70
2021/09/06 03:11:28;;;;;;;8.15;4.85;;;19.40;64.00;;;;;;5054935;28;20056;-71
2021/09/06 03:13:55;;;;;;;8.90;5.78;;;19.40;64.10;;;;;;5054885;28;20024;-70
2021/09/06 03:16:22;;;;;;;9.48;5.47;;;19.40;64.10;;;;;;5054844;28;20036;-70
2021/09/06 03:18:48;;;;;;;8.02;4.97;;;19.40;64.10;;;;;;5054758;28;20021;-70
2021/09/06 03:21:14;;;;;;;8.77;5.60;;;19.40;64.10;;;;;;5054742;28;20506;-70
2021/09/06 03:23:40;;;;;;;10.07;5.75;;;19.40;64.10;;;;;;5053411;28;20051;-70
2021/09/06 03:26:06;;;;;;;9.77;5.65;;;19.30;64.10;;;;;;5054555;28;20040;-70
2021/09/06 03:28:31;;;;;;;8.93;5.63;;;19.40;64.10;;;;;;5054563;28;20029;-70
2021/09/06 03:30:57;;;;;;;8.80;5.22;;;19.40;64.10;;;;;;5054491;28;20033;-70
2021/09/06 03:33:22;;;;;;;9.52;5.80;;;19.30;64.10;;;;;;5054309;28;20032;-70
2021/09/06 03:35:48;;;;;;;8.43;5.28;;;19.30;64.20;;;;;;5054500;28;20025;-70
2021/09/06 03:38:14;;;;;;;9.90;5.68;;;19.30;64.20;;;;;;5052995;28;20099;-70
2021/09/06 03:40:40;;;;;;;8.13;5.30;;;19.30;64.20;;;;;;5054345;28;20017;-70
2021/09/06 03:43:05;;;;;;;9.13;5.53;;;19.30;64.10;;;;;;5054352;28;20069;-70
2021/09/06 03:45:31;;;;;;;8.95;5.95;;;19.30;64.20;;;;;;5054579;28;20380;-71
2021/09/06 03:47:57;;;;;;;8.98;5.57;;;19.30;64.20;;;;;;5054203;28;20025;-70
2021/09/06 03:50:23;;;;;;;10.32;5.57;;;19.30;64.20;;;;;;5053588;28;20035;-70
2021/09/06 03:52:49;;;;;;;8.73;5.40;;;19.30;64.20;;;;;;5054517;28;20120;-70
2021/09/06 03:55:14;;;;;;;9.52;5.80;;;19.20;64.20;;;;;;5054238;28;20027;-71
2021/09/06 03:57:40;;;;;;;7.80;4.93;;;19.20;64.20;;;;;;5054007;28;20021;-71
2021/09/06 04:00:06;;;;;;;11.15;6.32;;;19.20;64.20;;;;;;5053953;28;20021;-70
2021/09/06 04:02:32;;;;;;;9.15;5.60;;;19.20;64.20;;;;;;5052590;28;20404;-70
2021/09/06 04:04:59;;;;;;;9.13;5.57;;;19.20;64.30;;;;;;5053839;28;20029;-70
2021/09/06 04:07:25;;;;;;;8.10;5.30;;;19.20;64.30;;;;;;5053862;28;20116;-71
2021/09/06 04:09:50;;;;;;;9.15;5.55;;;19.20;64.30;;;;;;5053768;28;20060;-71
2021/09/06 04:12:16;;;;;;;8.65;5.18;;;19.20;64.30;;;;;;5053738;28;20047;-71
2021/09/06 04:14:41;;;;;;;9.60;5.85;;;19.20;64.30;;;;;;5052386;28;20465;-71
2021/09/06 04:17:07;;;;;;;8.45;5.18;;;19.20;64.30;;;;;;5053535;28;20024;-71
2021/09/06 04:19:33;;;;;;;8.88;5.50;;;19.20;64.30;;;;;;5052271;28;20031;-71
2021/09/06 04:21:59;;;;;;;9.43;5.90;;;19.20;64.30;;;;;;5053443;28;20067;-70
2021/09/06 04:24:24;;;;;;;9.35;5.72;;;19.20;64.30;;;;;;5053467;28;20046;-70
2021/09/06 04:26:50;;;;;;;8.80;5.22;;;19.20;64.30;;;;;;5053395;28;20078;-71
2021/09/06 04:29:16;;;;;;;9.40;5.63;;;19.20;64.30;;;;;;5053415;28;20358;-71
2021/09/06 04:31:42;;;;;;;8.88;5.70;;;19.20;64.30;;;;;;5053283;28;20036;-71
2021/09/06 04:34:08;;;;;;;10.23;5.72;;;19.10;64.30;;;;;;5053378;28;20029;-71
2021/09/06 04:36:33;;;;;;;9.70;5.95;;;19.10;64.40;;;;;;5053369;28;20108;-71
2021/09/06 04:38:59;;;;;;;9.05;5.53;;;19.10;64.40;;;;;;5052961;28;20053;-71
2021/09/06 04:41:25;;;;;;;10.40;5.53;;;19.10;64.40;;;;;;5053343;28;20560;-71
2021/09/06 04:43:50;;;;;;;9.60;5.53;;;19.10;64.30;;;;;;5053198;28;20055;-71
2021/09/06 04:46:16;;;;;;;9.65;6.00;;;19.10;64.30;;;;;;5053094;28;20472;-70
2021/09/06 04:48:42;;;;;;;8.25;5.10;;;19.10;64.30;;;;;;5053143;28;20036;-71
2021/09/06 04:51:07;;;;;;;9.45;5.93;;;19.10;64.30;;;;;;5053142;28;20029;-70
2021/09/06 04:53:33;;;;;;;8.10;5.07;;;19.10;64.40;;;;;;5051769;28;20025;-70
2021/09/06 04:55:59;;;;;;;8.93;5.45;;;19.10;64.40;;;;;;5051695;28;20606;-70
2021/09/06 04:58:24;;;;;;;8.68;5.05;;;19.10;64.40;;;;;;5052984;28;20032;-71
2021/09/06 05:00:50;;;;;;;9.07;5.28;;;19.10;64.40;;;;;;5053054;28;20526;-70
2021/09/06 05:03:15;;;;;;;9.25;5.55;;;19.10;64.40;;;;;;5053055;28;20021;-70
2021/09/06 05:05:41;;;;;;;8.82;5.50;;;19.10;64.40;;;;;;5052782;28;20477;-70
2021/09/06 05:08:06;;;;;;;9.35;5.82;;;19.10;64.30;;;;;;5052735;28;20025;-70
2021/09/06 05:10:32;;;;;;;8.25;5.45;;;19.10;64.30;;;;;;5052802;28;20021;-70
2021/09/06 05:12:58;;;;;;;8.93;5.22;;;19.10;64.40;;;;;;5052755;28;20424;-70
2021/09/06 05:15:24;;;;;;;9.70;5.85;;;19.00;64.40;;;;;;5052643;28;20029;-70
2021/09/06 05:17:49;;;;;;;9.05;5.63;;;19.00;64.40;;;;;;5052606;28;20381;-71
2021/09/06 05:20:15;;;;;;;10.25;6.03;;;19.10;64.40;;;;;;5052351;28;20111;-70
2021/09/06 05:22:41;;;;;;;9.30;6.15;;;19.00;64.40;;;;;;5052791;28;20053;-70
2021/09/06 05:25:07;;;;;;;8.55;5.32;;;19.00;64.30;;;;;;5052466;28;20465;-71
2021/09/06 05:27:32;;;;;;;8.98;5.50;;;19.00;64.40;;;;;;5052810;28;20029;-71
2021/09/06 05:29:58;;;;;;;7.85;5.05;;;19.00;64.40;;;;;;5052534;28;20056;-70
2021/09/06 05:32:24;;;;;;;8.80;5.68;;;19.00;64.40;;;;;;5052491;28;20021;-70
2021/09/06 05:34:49;;;;;;;8.10;5.05;;;19.00;64.40;;;;;;5052430;28;20062;-69
2021/09/06 05:37:15;;;;;;;9.15;5.68;;;19.00;64.40;;;;;;5052312;28;20025;-70
2021/09/06 05:39:40;;;;;;;8.68;5.47;;;19.00;64.30;;;;;;5051274;28;20111;-70
2021/09/06 05:42:06;;;;;;;9.00;5.88;;;19.00;64.40;;;;;;5052413;28;20021;-70
2021/09/06 05:44:32;;;;;;;8.90;5.22;;;19.00;64.40;;;;;;5052353;28;20029;-70
2021/09/06 05:46:57;;;;;;;8.38;5.63;;;19.00;64.40;;;;;;5052304;28;20059;-70
2021/09/06 05:49:23;;;;;;;9.32;5.43;;;19.00;64.30;;;;;;5052355;28;20527;-71
2021/09/06 05:51:48;;;;;;;9.23;5.82;;;19.00;64.30;;;;;;5052387;28;20104;-70
2021/09/06 05:54:14;;;;;;;8.50;5.40;;;19.00;64.30;;;;;;5052338;28;20472;-71
2021/09/06 05:56:39;;;;;;;8.90;5.78;;;19.00;64.30;;;;;;5052315;28;20025;-71
2021/09/06 05:59:05;;;;;;;8.95;5.32;;;19.00;64.30;;;;;;5052302;28;20108;-70
2021/09/06 06:01:30;;;;;;;8.68;5.57;;;19.00;64.30;;;;;;5052190;28;20107;-71
2021/09/06 06:03:56;;;;;;;9.00;5.53;;;19.00;64.30;;;;;;5050976;28;20021;-70
2021/09/06 06:06:21;;;;;;;9.80;5.82;;;19.00;64.30;;;;;;5052169;28;20037;-70
2021/09/06 06:08:47;;;;;;;9.77;5.43;;;19.00;64.20;;;;;;5052169;28;20430;-71
2021/09/06 06:11:12;;;;;;;9.55;5.68;;;19.00;64.30;;;;;;5052151;28;20036;-71
2021/09/06 06:13:38;;;;;;;10.75;6.10;;;19.00;64.30;;;;;;5053773;28;20025;-70
2021/09/06 06:16:04;;;;;;;8.38;5.60;;;19.00;64.30;;;;;;5055931;28;20055;-71
2021/09/06 06:18:29;;;;;;;8.52;5.70;;;19.00;64.30;;;;;;5055893;28;20025;-70
2021/09/06 06:20:54;;;;;;;8.45;5.30;;;19.00;64.30;;;;;;5055758;28;20102;-70
2021/09/06 06:23:20;;;;;;;9.27;5.75;;;19.00;64.30;;;;;;5055894;28;20469;-70
2021/09/06 06:25:45;;;;;;;9.50;5.85;;;19.00;64.30;;;;;;5055952;28;20040;-70
2021/09/06 06:28:11;;;;;;;10.77;5.40;;;19.00;64.30;;;;;;5055567;28;20029;-69
2021/09/06 06:30:36;;;;;;;10.13;5.70;;;19.00;64.40;;;;;;5055563;28;20032;-70
2021/09/06 06:33:03;;;;;;;9.60;6.00;;;19.00;64.40;;;;;;5053483;28;20145;-70
2021/09/06 06:35:28;;;;;;;9.10;5.20;;;19.00;64.40;;;;;;5048117;28;20036;-69
2021/09/06 06:37:54;;;;;;;9.95;5.93;;;19.00;64.40;;;;;;5053419;28;20041;-71
2021/09/06 06:40:19;;;;;;;11.00;5.65;;;19.00;64.40;;;;;;5042229;28;20059;-73
2021/09/06 06:42:45;;;;;;;10.10;6.00;;;19.00;64.40;;;;;;5054458;28;20028;-73
2021/09/06 06:45:11;;;;;;;8.95;5.60;;;19.00;64.40;;;;;;5054286;28;20258;-74
2021/09/06 06:47:36;;;;;;;9.05;5.32;;;19.00;64.40;;;;;;5054445;28;20388;-74
2021/09/06 06:50:02;;;;;;;8.93;6.05;;;19.10;64.40;;;;;;5045508;28;20033;-73
2021/09/06 06:52:28;;;;;;;8.90;5.50;;;19.10;64.30;;;;;;5054150;28;20036;-72
2021/09/06 06:54:53;;;;;;;12.70;5.47;;;19.10;64.30;;;;;;5054230;28;20481;-72
2021/09/06 06:57:19;;;;;;;8.18;5.10;;;19.10;64.20;;;;;;5054033;28;20040;-71
2021/09/06 06:59:45;;;;;;;8.75;5.90;;;19.10;64.20;;;;;;5046869;28;20025;-67
2021/09/06 07:02:10;;;;;;;8.52;5.18;;;19.10;64.10;;;;;;5046861;28;20048;-71
2021/09/06 07:04:36;;;;;;;9.73;5.80;;;19.10;64.20;;;;;;5042809;28;20094;-70
2021/09/06 07:07:02;;;;;;;10.07;5.93;;;19.20;64.20;;;;;;5033428;28;20025;-74
2021/09/06 07:09:27;;;;;;;14.20;5.78;;;19.20;64.20;;;;;;5024145;28;20026;-71
2021/09/06 07:11:53;;;;;;;8.88;5.22;;;19.20;64.20;;;;;;5027987;28;20033;-67
2021/09/06 07:14:18;;;;;;;9.48;5.78;;;19.20;64.20;;;;;;5032534;28;20021;-69
2021/09/06 07:16:44;;;;;;;8.93;5.45;;;19.20;64.10;;;;;;5033911;28;20029;-69
2021/09/06 07:19:09;;;;;;;8.60;5.32;;;19.30;64.00;;;;;;5033409;28;20051;-67
2021/09/06 07:21:35;;;;;;;9.50;5.85;;;19.30;64.00;;;;;;5044596;28;20071;-68
2021/09/06 07:24:00;;;;;;;9.32;5.18;;;19.30;63.80;;;;;;5052196;28;20025;-68
2021/09/06 07:26:26;;;;;;;8.02;5.30;;;19.40;63.80;;;;;;5032983;28;20385;-69
2021/09/06 07:28:51;;;;;;;7.70;4.82;;;19.40;63.70;;;;;;5027427;28;20420;-70
2021/09/06 07:31:17;;;;;;;9.57;5.72;;;19.40;63.70;;;;;;5024759;28;20117;-72
2021/09/06 07:33:42;;;;;;;11.15;6.00;;;19.40;63.60;;;;;;5037120;28;20465;-71
2021/09/06 07:36:08;;;;;;;9.50;5.18;;;19.40;63.70;;;;;;5050576;28;20459;-71
2021/09/06 07:38:33;;;;;;;9.15;5.15;;;19.40;63.60;;;;;;5051773;28;20068;-71
2021/09/06 07:40:59;;;;;;;8.57;5.53;;;19.50;63.60;;;;;;5035305;28;20029;-72
2021/09/06 07:43:25;;;;;;;8.68;5.45;;;19.50;63.60;;;;;;5052132;28;20153;-72
2021/09/06 07:45:51;;;;;;;9.68;5.72;;;19.50;63.70;;;;;;5052213;28;20049;-72
2021/09/06 07:48:17;;;;;;;9.27;5.53;;;19.40;63.90;;;;;;5051067;28;20028;-72
2021/09/06 07:50:44;;;;;;;10.32;5.40;;;19.50;63.80;;;;;;5036517;28;20032;-72
2021/09/06 07:53:10;;;;;;;9.20;5.93;;;19.50;63.80;;;;;;5044275;28;20028;-71
2021/09/06 07:55:35;;;;;;;10.23;6.28;;;19.50;63.70;;;;;;5050696;28;20028;-69
2021/09/06 07:58:01;;;;;;;9.13;5.95;;;19.50;63.60;;;;;;5050217;28;20032;-71
2021/09/06 08:00:26;;;;;;;9.00;5.60;;;19.50;63.80;;;;;;5035828;28;20055;-70
2021/09/06 08:02:52;;;;;;;11.18;6.05;;;19.50;63.70;;;;;;5068605;28;20100;-70
2021/09/06 08:05:22;;;;;;;9.95;5.35;;;19.60;63.70;;;;;;5065837;28;20029;-70
2021/09/06 08:07:48;;;;;;;9.50;5.90;;;19.60;63.70;;;;;;5050132;28;20461;-70
2021/09/06 08:10:14;;;;;;;10.35;5.50;;;19.60;63.60;;;;;;5035565;28;20546;-70
2021/09/06 08:12:40;;;;;;;10.57;6.20;;;19.60;63.70;;;;;;5047340;28;20035;-72
2021/09/06 08:15:07;;;;;;;8.70;5.55;;;19.60;63.60;;;;;;5032204;28;20025;-70
2021/09/06 08:17:34;;;;;;;9.40;5.95;;;19.60;63.60;;;;;;5031669;28;20033;-69
2021/09/06 08:20:04;;;;;;;10.50;5.13;;;19.60;63.60;;;;;;5029087;28;20021;-70
2021/09/06 08:22:30;;;;;;;10.98;5.80;;;19.60;63.80;;;;;;5051550;28;20021;-71
2021/09/06 08:24:56;;;;;;;10.23;5.68;;;19.70;63.70;;;;;;5051590;28;20044;-71
2021/09/06 08:27:22;;;;;;;9.23;5.60;;;19.70;63.70;;;;;;5050000;28;20041;-70
2021/09/06 08:29:48;;;;;;;9.70;5.63;;;19.70;63.70;;;;;;5020871;28;20022;-71
2021/09/06 08:32:14;;;;;;;8.27;4.93;;;19.70;63.70;;;;;;5026565;28;20466;-69
2021/09/06 08:34:39;;;;;;;8.75;5.55;;;19.70;63.80;;;;;;5031537;28;20043;-69
2021/09/06 08:37:05;;;;;;;13.45;5.30;;;19.70;63.80;;;;;;5030969;28;20021;-69
2021/09/06 08:39:30;;;;;;;7.95;5.10;;;19.80;63.70;;;;;;5032872;28;20037;-69
2021/09/06 08:41:58;;;;;;;9.48;5.70;;;19.80;63.70;;;;;;5044836;28;20807;-71
2021/09/06 08:44:26;;;;;;;9.48;5.10;;;19.80;63.80;;;;;;5049555;28;20043;-71
2021/09/06 08:46:53;;;;;;;9.55;5.07;;;19.80;63.90;;;;;;5049776;28;20056;-68
2021/09/06 08:49:20;;;;;;;8.98;4.75;;;19.80;63.90;;;;;;5041678;28;20028;-69
2021/09/06 08:51:46;;;;;;;9.23;5.30;;;19.80;63.80;;;;;;5040930;28;20025;-69
2021/09/06 08:54:12;;;;;;;9.85;5.93;;;19.80;63.90;;;;;;5050860;28;20064;-67
2021/09/06 08:56:38;;;;;;;9.13;5.57;;;19.80;63.80;;;;;;5047801;28;20087;-68
2021/09/06 08:59:05;;;;;;;11.98;5.22;;;19.80;63.80;;;;;;5038421;28;20075;-69
2021/09/06 09:01:44;;;;;;;8.77;5.35;;;19.90;63.80;;;;;;5032833;28;20022;-68
2021/09/06 09:04:14;;;;;;;11.60;5.60;;;19.80;63.90;;;;;;5031004;28;20091;-69
2021/09/06 09:06:40;;;;;;;9.73;5.13;;;19.90;63.90;;;;;;5030981;28;20037;-72
2021/09/06 09:09:06;;;;;;;9.07;5.20;;;19.90;63.90;;;;;;5037484;28;20489;-68
2021/09/06 09:11:33;;;;;;;9.68;5.22;;;19.90;63.90;;;;;;5037525;28;20029;-70
2021/09/06 09:14:12;;;;;;;7.85;5.28;;;19.90;63.90;;;;;;5051027;28;20029;-70
2021/09/06 09:16:38;;;;;;;8.23;5.25;;;19.90;63.90;;;;;;5051414;28;20021;-71
2021/09/06 09:19:07;;;;;;;10.70;5.25;;;20.00;63.90;;;;;;5045010;28;20037;-71
2021/09/06 09:21:32;;;;;;;10.60;5.85;;;20.00;64.00;;;;;;5041871;28;20029;-71
2021/09/06 09:24:01;;;;;;;10.30;5.20;;;20.00;63.90;;;;;;5050222;28;20033;-70
2021/09/06 09:26:30;;;;;;;8.02;5.03;;;20.00;63.90;;;;;;5048822;28;20097;-66
2021/09/06 09:28:56;;;;;;;18.65;5.68;;;20.00;63.80;;;;;;5042750;28;20040;-69
2021/09/06 09:31:22;;;;;;;8.80;5.10;;;20.00;63.80;;;;;;5041429;28;20376;-70
2021/09/06 09:33:50;;;;;;;12.43;5.57;;;20.00;63.80;;;;;;5051313;28;20384;-70
2021/09/06 09:36:30;;;;;;;8.60;5.03;;;20.00;63.80;;;;;;5051200;28;20028;-70
2021/09/06 09:39:08;;;;;;;8.65;5.05;;;20.10;63.80;;;;;;5044943;28;20060;-67
2021/09/06 09:41:34;;;;;;;8.80;5.55;;;20.10;63.80;;;;;;5039122;28;20078;-70
2021/09/06 09:44:17;;;;;;;14.00;5.85;;;20.10;63.80;;;;;;5049878;28;20074;-68
2021/09/06 09:46:52;;;;;;;12.27;5.18;;;20.10;63.80;;;;;;5050959;28;20511;-69
2021/09/06 09:49:19;;;;;;;8.68;5.35;;;20.10;63.90;;;;;;5044636;28;20298;-68
2021/09/06 09:51:45;;;;;;;8.85;4.90;;;20.10;63.80;;;;;;5049726;28;20029;-70
2021/09/06 09:54:11;;;;;;;11.18;5.68;;;20.20;63.70;;;;;;5054971;28;20024;-70
2021/09/06 09:56:36;;;;;;;8.40;5.30;;;20.20;63.70;;;;;;5054842;28;20135;-70
2021/09/06 09:59:02;;;;;;;7.65;4.82;;;20.20;63.60;;;;;;5048569;28;20142;-69
2021/09/06 10:01:30;;;;;;;9.43;5.22;;;20.20;63.60;;;;;;5041601;28;20827;-71
2021/09/06 10:03:59;;;;;;;9.02;4.90;;;20.20;63.60;;;;;;5054305;28;20017;-70
2021/09/06 10:06:25;;;;;;;9.23;5.00;;;20.30;63.50;;;;;;5054886;28;20041;-71
2021/09/06 10:08:51;;;;;;;8.40;5.20;;;20.20;63.60;;;;;;5053596;28;20017;-71
2021/09/06 10:11:16;;;;;;;10.00;5.45;;;20.30;63.50;;;;;;5053776;28;20543;-69
2021/09/06 10:13:43;;;;;;;9.70;5.45;;;20.20;63.70;;;;;;5053963;28;20025;-71
2021/09/06 10:16:08;;;;;;;8.00;4.78;;;20.30;63.50;;;;;;5054496;28;20107;-72
2021/09/06 10:18:39;;;;;;;8.75;5.20;;;20.40;63.30;;;;;;5054311;28;20109;-72
2021/09/06 10:21:17;;;;;;;9.95;5.75;;;20.40;63.30;;;;;;5053238;28;20028;-72
2021/09/06 10:23:48;;;;;;;10.75;5.30;;;20.40;63.30;;;;;;5053780;28;20059;-72
2021/09/06 10:26:14;;;;;;;7.95;4.60;;;20.40;63.30;;;;;;5053898;28;20532;-72
2021/09/06 10:28:40;;;;;;;8.73;5.15;;;20.40;63.30;;;;;;5051860;28;20033;-71
2021/09/06 10:31:16;;;;;;;8.73;4.80;;;20.50;63.30;;;;;;5044078;28;20090;-70
2021/09/06 10:33:43;;;;;;;8.98;4.88;;;20.50;63.30;;;;;;5049957;28;20116;-70
2021/09/06 10:36:20;;;;;;;9.23;4.78;;;20.40;63.30;;;;;;5053322;28;20033;-69
2021/09/06 10:38:59;;;;;;;8.63;4.97;;;20.50;63.30;;;;;;5053810;28;20037;-70
2021/09/06 10:41:25;;;;;;;9.02;4.85;;;20.50;63.30;;;;;;5022867;28;20059;-68
2021/09/06 10:43:59;;;;;;;9.50;4.68;;;20.50;63.20;;;;;;5039085;28;20021;-67
2021/09/06 10:46:27;;;;;;;7.97;5.07;;;20.60;63.10;;;;;;5043376;28;20393;-69
2021/09/06 10:48:53;;;;;;;13.70;5.00;;;20.60;63.10;;;;;;5033987;28;20025;-70
2021/09/06 10:51:27;;;;;;;7.47;4.78;;;20.60;63.10;;;;;;5038805;28;20048;-69
2021/09/06 10:53:57;;;;;;;9.05;5.47;;;20.70;63.00;;;;;;5048782;28;20480;-68
2021/09/06 10:56:31;;;;;;;8.15;4.55;;;20.70;63.00;;;;;;5053560;28;20033;-69
2021/09/06 10:58:58;;;;;;;9.00;4.78;;;20.70;63.00;;;;;;5053482;28;20024;-68
2021/09/06 11:01:24;;;;;;;8.63;4.68;;;20.70;63.00;;;;;;5042864;28;20029;-69
2021/09/06 11:03:54;;;;;;;8.02;4.38;;;20.80;63.00;;;;;;5046793;28;20484;-71
2021/09/06 11:06:23;;;;;;;8.65;4.53;;;20.80;63.00;;;;;;5051618;28;20048;-71
2021/09/06 11:08:49;;;;;;;12.65;4.75;;;20.80;63.00;;;;;;5052428;28;20025;-69
2021/09/06 11:11:14;;;;;;;9.73;5.03;;;20.90;63.00;;;;;;5042671;28;20044;-70
2021/09/06 11:13:45;;;;;;;9.30;5.55;;;21.00;62.90;;;;;;5047085;28;20021;-70
2021/09/06 11:16:16;;;;;;;7.65;4.78;;;21.00;63.00;;;;;;5053172;28;20025;-68
2021/09/06 11:18:50;;;;;;;8.48;5.00;;;21.00;62.80;;;;;;5053274;28;20066;-68
2021/09/06 11:21:19;;;;;;;12.02;4.90;;;21.00;62.70;;;;;;5043034;28;20406;-68
2021/09/06 11:23:46;;;;;;;10.18;4.32;;;21.00;62.80;;;;;;5047105;28;20028;-69
2021/09/06 11:26:25;;;;;;;10.00;4.57;;;21.10;62.70;;;;;;5052495;28;20052;-71
2021/09/06 11:28:50;;;;;;;7.65;4.30;;;21.20;62.70;;;;;;5052372;28;20099;-72
2021/09/06 11:31:20;;;;;;;8.07;4.45;;;21.20;62.50;;;;;;5042586;28;20090;-67
2021/09/06 11:33:54;;;;;;;12.23;5.43;;;21.20;62.70;;;;;;5048447;28;20021;-66
2021/09/06 11:36:20;;;;;;;9.15;4.53;;;21.20;62.70;;;;;;5051881;28;20392;-68
2021/09/06 11:38:45;;;;;;;11.73;4.97;;;21.20;62.60;;;;;;5050993;28;20040;-68
2021/09/06 11:41:13;;;;;;;7.65;4.53;;;21.20;62.50;;;;;;5039936;28;20024;-70
2021/09/06 11:43:40;;;;;;;11.85;5.07;;;21.30;62.40;;;;;;5048058;28;20040;-69
2021/09/06 11:46:06;;;;;;;8.48;5.00;;;21.30;62.40;;;;;;5052337;28;20469;-69
2021/09/06 11:48:48;;;;;;;7.47;4.68;;;21.30;62.40;;;;;;5052752;28;20087;-69
2021/09/06 11:51:15;;;;;;;9.18;4.15;;;21.40;62.20;;;;;;5036047;28;20210;-69
2021/09/06 11:53:41;;;;;;;10.70;5.38;;;21.40;62.20;;;;;;5041576;28;20033;-70
2021/09/06 11:56:14;;;;;;;8.30;4.65;;;21.50;62.30;;;;;;5051975;28;20029;-71
2021/09/06 11:58:46;;;;;;;17.08;5.20;;;21.50;62.00;;;;;;5052536;28;20094;-70
2021/09/06 12:01:15;;;;;;;10.68;4.93;;;21.60;62.20;;;;;;5046955;28;20048;-68
2021/09/06 12:03:46;;;;;;;7.00;3.75;;;21.70;62.00;;;;;;5046194;28;20029;-71
2021/09/06 12:06:14;;;;;;;7.57;4.35;;;21.70;62.20;;;;;;5051060;28;20033;-70
2021/09/06 12:08:59;;;;;;;9.90;5.22;;;21.70;62.30;;;;;;5052243;28;20067;-69
2021/09/06 12:11:38;;;;;;;6.55;3.45;;;21.90;62.30;;;;;;5052206;28;20036;-70
2021/09/06 12:14:06;;;;;;;7.70;3.83;;;21.90;62.40;;;;;;5052629;28;20510;-68
2021/09/06 12:16:32;;;;;;;5.88;3.60;;;22.00;62.50;;;;;;5052440;28;20040;-69
2021/09/06 12:18:58;;;;;;;8.30;4.53;;;22.00;62.50;;;;;;5051282;28;20021;-69
2021/09/06 12:21:25;;;;;;;10.40;5.15;;;22.10;62.40;;;;;;5050902;28;20028;-70
2021/09/06 12:23:58;;;;;;;9.73;4.60;;;22.10;62.50;;;;;;5051191;28;20025;-70
2021/09/06 12:26:23;;;;;;;9.25;4.43;;;22.10;62.50;;;;;;5050949;28;20139;-69
2021/09/06 12:28:56;;;;;;;6.97;4.28;;;22.20;62.50;;;;;;5052479;28;20175;-69
2021/09/06 12:31:23;;;;;;;8.82;4.55;;;22.20;62.60;;;;;;5053045;28;20021;-68
2021/09/06 12:33:48;;;;;;;9.93;4.70;;;22.20;62.60;;;;;;5052094;28;20056;-69
2021/09/06 12:36:15;;;;;;;9.27;4.15;;;22.30;62.70;;;;;;5052685;28;20025;-69
2021/09/06 12:38:41;;;;;;;7.68;4.53;;;22.30;62.80;;;;;;5052471;28;20052;-70
2021/09/06 12:41:07;;;;;;;10.40;4.97;;;22.40;62.80;;;;;;5052290;28;20056;-70
2021/09/06 12:43:33;;;;;;;7.78;3.83;;;22.40;63.00;;;;;;5052292;28;20029;-70